sensor_id;sensor_type;location;lat;lon;timestamp;P1;durP1;ratioP1;P2;durP2;ratioP2
7247;SDS011;3665;51.034;13.642;2023-05-20T00:05:53;19.73;;;14.20;;
7247;SDS011;3665;51.034;13.642;2023-05-20T00:10:49;16.20;;;13.57;;
7247;SDS011;3665;51.034;13.642;2023-05-20T00:15:38;15.00;;;13.37;;
7247;SDS011;3665;51.034;13.642;2023-05-20T00:20:24;17.67;;;14.23;;
7247;SDS011;3665;51.034;13.642;2023-05-20T00:25:20;17.00;;;14.57;;
7247;SDS011;3665;51.034;13.642;2023-05-20T00:30:17;16.50;;;14.90;;
7247;SDS011;3665;51.034;13.642;2023-05-20T00:35:04;16.47;;;13.67;;
7247;SDS011;3665;51.034;13.642;2023-05-20T00:39:52;17.03;;;14.70;;
7247;SDS011;3665;51.034;13.642;2023-05-20T00:44:41;15.27;;;13.70;;
7247;SDS011;3665;51.034;13.642;2023-05-20T00:49:28;16.13;;;14.43;;
7247;SDS011;3665;51.034;13.642;2023-05-20T00:54:18;17.57;;;15.47;;
7247;SDS011;3665;51.034;13.642;2023-05-20T00:59:06;17.33;;;15.47;;
7247;SDS011;3665;51.034;13.642;2023-05-20T01:03:53;19.83;;;16.90;;
7247;SDS011;3665;51.034;13.642;2023-05-20T01:08:40;18.90;;;16.03;;
7247;SDS011;3665;51.034;13.642;2023-05-20T01:13:32;18.40;;;16.13;;
7247;SDS011;3665;51.034;13.642;2023-05-20T01:18:24;22.07;;;16.60;;
7247;SDS011;3665;51.034;13.642;2023-05-20T01:23:22;18.53;;;16.27;;
7247;SDS011;3665;51.034;13.642;2023-05-20T01:28:09;18.97;;;16.67;;
7247;SDS011;3665;51.034;13.642;2023-05-20T01:33:16;19.07;;;16.97;;
7247;SDS011;3665;51.034;13.642;2023-05-20T01:43:39;20.77;;;16.27;;
7247;SDS011;3665;51.034;13.642;2023-05-20T01:48:24;22.80;;;17.77;;
7247;SDS011;3665;51.034;13.642;2023-05-20T01:53:10;22.27;;;17.67;;
7247;SDS011;3665;51.034;13.642;2023-05-20T01:58:03;21.73;;;18.70;;
7247;SDS011;3665;51.034;13.642;2023-05-20T02:07:53;22.17;;;18.13;;
7247;SDS011;3665;51.034;13.642;2023-05-20T02:12:40;21.27;;;18.97;;
7247;SDS011;3665;51.034;13.642;2023-05-20T02:17:33;21.43;;;17.53;;
7247;SDS011;3665;51.034;13.642;2023-05-20T02:27:53;20.13;;;17.43;;
7247;SDS011;3665;51.034;13.642;2023-05-20T02:32:42;21.53;;;19.13;;
7247;SDS011;3665;51.034;13.642;2023-05-20T02:37:28;21.90;;;18.10;;
7247;SDS011;3665;51.034;13.642;2023-05-20T02:42:18;22.10;;;18.20;;
7247;SDS011;3665;51.034;13.642;2023-05-20T02:47:07;24.20;;;18.70;;
7247;SDS011;3665;51.034;13.642;2023-05-20T02:51:52;22.93;;;17.87;;
7247;SDS011;3665;51.034;13.642;2023-05-20T02:56:45;20.00;;;16.30;;
7247;SDS011;3665;51.034;13.642;2023-05-20T03:01:29;23.97;;;17.73;;
7247;SDS011;3665;51.034;13.642;2023-05-20T03:06:16;22.10;;;17.47;;
7247;SDS011;3665;51.034;13.642;2023-05-20T03:11:03;23.53;;;17.67;;
7247;SDS011;3665;51.034;13.642;2023-05-20T03:15:56;19.80;;;16.40;;
7247;SDS011;3665;51.034;13.642;2023-05-20T03:20:42;18.90;;;16.87;;
7247;SDS011;3665;51.034;13.642;2023-05-20T03:25:46;21.27;;;17.00;;
7247;SDS011;3665;51.034;13.642;2023-05-20T03:30:34;19.37;;;16.10;;
7247;SDS011;3665;51.034;13.642;2023-05-20T03:35:20;22.27;;;17.70;;
7247;SDS011;3665;51.034;13.642;2023-05-20T03:40:08;22.80;;;18.17;;
7247;SDS011;3665;51.034;13.642;2023-05-20T03:44:56;24.37;;;18.87;;
7247;SDS011;3665;51.034;13.642;2023-05-20T03:49:45;19.43;;;17.33;;
7247;SDS011;3665;51.034;13.642;2023-05-20T03:54:32;21.50;;;17.83;;
7247;SDS011;3665;51.034;13.642;2023-05-20T03:59:55;21.27;;;17.67;;
7247;SDS011;3665;51.034;13.642;2023-05-20T04:04:40;22.63;;;17.90;;
7247;SDS011;3665;51.034;13.642;2023-05-20T04:09:33;22.27;;;18.23;;
7247;SDS011;3665;51.034;13.642;2023-05-20T04:14:18;20.70;;;17.70;;
7247;SDS011;3665;51.034;13.642;2023-05-20T04:19:08;21.47;;;18.27;;
7247;SDS011;3665;51.034;13.642;2023-05-20T04:23:51;21.60;;;17.77;;
7247;SDS011;3665;51.034;13.642;2023-05-20T04:28:40;21.27;;;18.73;;
7247;SDS011;3665;51.034;13.642;2023-05-20T04:33:33;20.97;;;18.73;;
7247;SDS011;3665;51.034;13.642;2023-05-20T04:38:40;22.20;;;18.83;;
7247;SDS011;3665;51.034;13.642;2023-05-20T04:43:29;22.10;;;19.10;;
7247;SDS011;3665;51.034;13.642;2023-05-20T04:48:21;21.40;;;18.23;;
7247;SDS011;3665;51.034;13.642;2023-05-20T04:53:13;21.23;;;18.10;;
7247;SDS011;3665;51.034;13.642;2023-05-20T04:58:03;21.40;;;18.53;;
7247;SDS011;3665;51.034;13.642;2023-05-20T05:02:49;20.03;;;17.80;;
7247;SDS011;3665;51.034;13.642;2023-05-20T05:07:35;24.27;;;19.27;;
7247;SDS011;3665;51.034;13.642;2023-05-20T05:12:28;21.67;;;18.93;;
7247;SDS011;3665;51.034;13.642;2023-05-20T05:17:29;20.73;;;18.37;;
7247;SDS011;3665;51.034;13.642;2023-05-20T05:22:18;20.63;;;17.87;;
7247;SDS011;3665;51.034;13.642;2023-05-20T05:27:05;21.70;;;17.97;;
7247;SDS011;3665;51.034;13.642;2023-05-20T05:31:54;21.03;;;18.67;;
7247;SDS011;3665;51.034;13.642;2023-05-20T05:36:40;22.30;;;17.93;;
7247;SDS011;3665;51.034;13.642;2023-05-20T05:41:33;22.07;;;18.37;;
7247;SDS011;3665;51.034;13.642;2023-05-20T05:46:18;22.53;;;18.60;;
7247;SDS011;3665;51.034;13.642;2023-05-20T05:51:05;20.87;;;18.63;;
7247;SDS011;3665;51.034;13.642;2023-05-20T05:55:51;20.90;;;17.40;;
7247;SDS011;3665;51.034;13.642;2023-05-20T06:00:42;20.60;;;18.23;;
7247;SDS011;3665;51.034;13.642;2023-05-20T06:05:29;25.17;;;22.17;;
7247;SDS011;3665;51.034;13.642;2023-05-20T06:10:19;23.00;;;20.40;;
7247;SDS011;3665;51.034;13.642;2023-05-20T06:15:06;24.37;;;20.80;;
7247;SDS011;3665;51.034;13.642;2023-05-20T06:19:52;25.77;;;20.47;;
7247;SDS011;3665;51.034;13.642;2023-05-20T06:24:40;23.40;;;19.97;;
7247;SDS011;3665;51.034;13.642;2023-05-20T06:29:29;21.10;;;18.80;;
7247;SDS011;3665;51.034;13.642;2023-05-20T06:39:21;22.63;;;19.73;;
7247;SDS011;3665;51.034;13.642;2023-05-20T06:44:08;21.20;;;18.93;;
7247;SDS011;3665;51.034;13.642;2023-05-20T06:49:24;24.63;;;21.87;;
7247;SDS011;3665;51.034;13.642;2023-05-20T06:54:16;22.47;;;20.07;;
7247;SDS011;3665;51.034;13.642;2023-05-20T06:59:00;21.17;;;18.97;;
7247;SDS011;3665;51.034;13.642;2023-05-20T07:03:57;24.57;;;19.63;;
7247;SDS011;3665;51.034;13.642;2023-05-20T07:08:41;22.93;;;19.67;;
7247;SDS011;3665;51.034;13.642;2023-05-20T07:13:29;21.70;;;19.43;;
7247;SDS011;3665;51.034;13.642;2023-05-20T07:18:13;20.53;;;18.33;;
7247;SDS011;3665;51.034;13.642;2023-05-20T07:23:04;20.77;;;18.23;;
7247;SDS011;3665;51.034;13.642;2023-05-20T07:28:03;20.47;;;18.10;;
7247;SDS011;3665;51.034;13.642;2023-05-20T07:33:00;19.40;;;17.30;;
7247;SDS011;3665;51.034;13.642;2023-05-20T07:37:44;18.70;;;16.70;;
7247;SDS011;3665;51.034;13.642;2023-05-20T07:42:28;19.70;;;17.77;;
7247;SDS011;3665;51.034;13.642;2023-05-20T07:47:21;20.60;;;18.50;;
7247;SDS011;3665;51.034;13.642;2023-05-20T07:52:09;20.30;;;17.60;;
7247;SDS011;3665;51.034;13.642;2023-05-20T07:56:53;23.47;;;20.97;;
7247;SDS011;3665;51.034;13.642;2023-05-20T08:01:39;20.27;;;18.13;;
7247;SDS011;3665;51.034;13.642;2023-05-20T08:11:01;18.90;;;16.77;;
7247;SDS011;3665;51.034;13.642;2023-05-20T08:15:49;21.30;;;17.53;;
7247;SDS011;3665;51.034;13.642;2023-05-20T08:20:34;20.23;;;17.60;;
7247;SDS011;3665;51.034;13.642;2023-05-20T08:25:31;18.30;;;16.40;;
7247;SDS011;3665;51.034;13.642;2023-05-20T08:30:20;18.73;;;16.90;;
7247;SDS011;3665;51.034;13.642;2023-05-20T08:35:04;16.93;;;15.37;;
7247;SDS011;3665;51.034;13.642;2023-05-20T08:39:51;17.30;;;15.70;;
7247;SDS011;3665;51.034;13.642;2023-05-20T08:44:35;18.70;;;16.90;;
7247;SDS011;3665;51.034;13.642;2023-05-20T08:49:30;15.77;;;14.37;;
7247;SDS011;3665;51.034;13.642;2023-05-20T08:54:15;18.15;;;16.00;;
7247;SDS011;3665;51.034;13.642;2023-05-20T08:59:01;16.70;;;15.13;;
7247;SDS011;3665;51.034;13.642;2023-05-20T09:03:48;17.67;;;15.98;;
7247;SDS011;3665;51.034;13.642;2023-05-20T09:08:42;15.90;;;14.43;;
7247;SDS011;3665;51.034;13.642;2023-05-20T09:13:28;16.20;;;14.63;;
7247;SDS011;3665;51.034;13.642;2023-05-20T09:18:16;21.42;;;19.40;;
7247;SDS011;3665;51.034;13.642;2023-05-20T09:23:01;16.48;;;14.77;;
7247;SDS011;3665;51.034;13.642;2023-05-20T09:27:53;15.82;;;14.32;;
7247;SDS011;3665;51.034;13.642;2023-05-20T09:32:41;18.23;;;16.13;;
7247;SDS011;3665;51.034;13.642;2023-05-20T09:37:24;16.45;;;14.93;;
7247;SDS011;3665;51.034;13.642;2023-05-20T09:42:14;15.57;;;14.18;;
7247;SDS011;3665;51.034;13.642;2023-05-20T09:47:05;17.63;;;15.82;;
7247;SDS011;3665;51.034;13.642;2023-05-20T09:51:53;17.30;;;15.70;;
7247;SDS011;3665;51.034;13.642;2023-05-20T09:56:42;14.60;;;13.20;;
7247;SDS011;3665;51.034;13.642;2023-05-20T10:01:28;16.00;;;14.40;;
7247;SDS011;3665;51.034;13.642;2023-05-20T10:06:26;15.75;;;14.35;;
7247;SDS011;3665;51.034;13.642;2023-05-20T10:11:21;16.80;;;15.20;;
7247;SDS011;3665;51.034;13.642;2023-05-20T10:16:19;16.45;;;14.55;;
7247;SDS011;3665;51.034;13.642;2023-05-20T10:21:15;16.55;;;15.02;;
7247;SDS011;3665;51.034;13.642;2023-05-20T10:26:04;15.88;;;14.27;;
7247;SDS011;3665;51.034;13.642;2023-05-20T10:30:49;15.63;;;14.13;;
7247;SDS011;3665;51.034;13.642;2023-05-20T10:35:33;16.95;;;15.10;;
7247;SDS011;3665;51.034;13.642;2023-05-20T10:40:32;15.85;;;13.23;;
7247;SDS011;3665;51.034;13.642;2023-05-20T10:50:33;14.20;;;12.85;;
7247;SDS011;3665;51.034;13.642;2023-05-20T10:55:18;14.43;;;13.02;;
7247;SDS011;3665;51.034;13.642;2023-05-20T11:00:05;14.63;;;13.10;;
7247;SDS011;3665;51.034;13.642;2023-05-20T11:04:56;14.45;;;13.05;;
7247;SDS011;3665;51.034;13.642;2023-05-20T11:09:48;14.18;;;12.65;;
7247;SDS011;3665;51.034;13.642;2023-05-20T11:14:31;13.07;;;11.88;;
7247;SDS011;3665;51.034;13.642;2023-05-20T11:19:23;15.30;;;13.80;;
7247;SDS011;3665;51.034;13.642;2023-05-20T11:24:11;14.65;;;13.15;;
7247;SDS011;3665;51.034;13.642;2023-05-20T11:28:54;14.43;;;13.02;;
7247;SDS011;3665;51.034;13.642;2023-05-20T11:33:44;13.43;;;12.15;;
7247;SDS011;3665;51.034;13.642;2023-05-20T11:38:32;14.60;;;12.90;;
7247;SDS011;3665;51.034;13.642;2023-05-20T11:43:21;14.48;;;12.98;;
7247;SDS011;3665;51.034;13.642;2023-05-20T11:48:11;12.90;;;11.65;;
7247;SDS011;3665;51.034;13.642;2023-05-20T11:52:56;13.30;;;12.00;;
7247;SDS011;3665;51.034;13.642;2023-05-20T11:57:47;13.40;;;12.20;;
7247;SDS011;3665;51.034;13.642;2023-05-20T12:02:34;14.57;;;12.10;;
7247;SDS011;3665;51.034;13.642;2023-05-20T12:07:20;13.77;;;12.48;;
7247;SDS011;3665;51.034;13.642;2023-05-20T12:12:09;12.57;;;11.48;;
7247;SDS011;3665;51.034;13.642;2023-05-20T12:16:56;13.38;;;12.00;;
7247;SDS011;3665;51.034;13.642;2023-05-20T12:26:49;14.10;;;12.77;;
7247;SDS011;3665;51.034;13.642;2023-05-20T12:31:35;12.18;;;11.00;;
7247;SDS011;3665;51.034;13.642;2023-05-20T12:36:25;12.18;;;10.80;;
7247;SDS011;3665;51.034;13.642;2023-05-20T12:41:14;12.27;;;11.07;;
7247;SDS011;3665;51.034;13.642;2023-05-20T12:46:03;13.05;;;11.95;;
7247;SDS011;3665;51.034;13.642;2023-05-20T12:50:49;11.43;;;10.35;;
7247;SDS011;3665;51.034;13.642;2023-05-20T12:55:39;11.38;;;10.48;;
7247;SDS011;3665;51.034;13.642;2023-05-20T13:05:25;13.45;;;12.15;;
7247;SDS011;3665;51.034;13.642;2023-05-20T13:10:13;11.63;;;10.63;;
7247;SDS011;3665;51.034;13.642;2023-05-20T13:15:15;13.15;;;11.77;;
7247;SDS011;3665;51.034;13.642;2023-05-20T13:20:08;12.30;;;11.10;;
7247;SDS011;3665;51.034;13.642;2023-05-20T13:24:56;11.88;;;10.63;;
7247;SDS011;3665;51.034;13.642;2023-05-20T13:29:40;12.15;;;11.05;;
7247;SDS011;3665;51.034;13.642;2023-05-20T13:34:30;13.10;;;11.75;;
7247;SDS011;3665;51.034;13.642;2023-05-20T13:39:24;12.95;;;11.75;;
7247;SDS011;3665;51.034;13.642;2023-05-20T13:44:08;13.63;;;10.73;;
7247;SDS011;3665;51.034;13.642;2023-05-20T13:48:54;12.38;;;11.13;;
7247;SDS011;3665;51.034;13.642;2023-05-20T13:53:40;13.30;;;12.02;;
7247;SDS011;3665;51.034;13.642;2023-05-20T13:58:32;14.52;;;11.57;;
7247;SDS011;3665;51.034;13.642;2023-05-20T14:03:16;12.35;;;11.15;;
7247;SDS011;3665;51.034;13.642;2023-05-20T14:08:12;12.45;;;10.40;;
7247;SDS011;3665;51.034;13.642;2023-05-20T14:12:56;12.95;;;10.88;;
7247;SDS011;3665;51.034;13.642;2023-05-20T14:17:47;11.95;;;10.70;;
7247;SDS011;3665;51.034;13.642;2023-05-20T14:22:31;12.20;;;11.00;;
7247;SDS011;3665;51.034;13.642;2023-05-20T14:27:21;12.00;;;10.90;;
7247;SDS011;3665;51.034;13.642;2023-05-20T14:42:53;13.00;;;11.73;;
7247;SDS011;3665;51.034;13.642;2023-05-20T14:47:36;14.43;;;12.87;;
7247;SDS011;3665;51.034;13.642;2023-05-20T14:52:27;13.77;;;12.47;;
7247;SDS011;3665;51.034;13.642;2023-05-20T14:57:13;13.60;;;12.20;;
7247;SDS011;3665;51.034;13.642;2023-05-20T15:02:03;14.53;;;12.60;;
7247;SDS011;3665;51.034;13.642;2023-05-20T15:06:50;14.37;;;13.00;;
7247;SDS011;3665;51.034;13.642;2023-05-20T15:11:38;13.20;;;11.93;;
7247;SDS011;3665;51.034;13.642;2023-05-20T15:16:25;14.23;;;12.83;;
7247;SDS011;3665;51.034;13.642;2023-05-20T15:21:16;13.93;;;12.50;;
7247;SDS011;3665;51.034;13.642;2023-05-20T15:25:59;13.13;;;11.40;;
7247;SDS011;3665;51.034;13.642;2023-05-20T15:30:53;12.97;;;11.77;;
7247;SDS011;3665;51.034;13.642;2023-05-20T15:35:38;12.97;;;11.70;;
7247;SDS011;3665;51.034;13.642;2023-05-20T15:40:26;13.07;;;11.77;;
7247;SDS011;3665;51.034;13.642;2023-05-20T15:45:10;13.30;;;12.03;;
7247;SDS011;3665;51.034;13.642;2023-05-20T15:50:01;14.37;;;12.97;;
7247;SDS011;3665;51.034;13.642;2023-05-20T15:54:49;14.47;;;13.07;;
7247;SDS011;3665;51.034;13.642;2023-05-20T15:59:37;13.90;;;12.50;;
7247;SDS011;3665;51.034;13.642;2023-05-20T16:04:25;13.90;;;12.60;;
7247;SDS011;3665;51.034;13.642;2023-05-20T16:09:15;13.93;;;12.63;;
7247;SDS011;3665;51.034;13.642;2023-05-20T16:14:02;14.93;;;13.27;;
7247;SDS011;3665;51.034;13.642;2023-05-20T16:18:51;14.43;;;13.03;;
7247;SDS011;3665;51.034;13.642;2023-05-20T16:23:37;13.80;;;12.47;;
7247;SDS011;3665;51.034;13.642;2023-05-20T16:28:24;13.33;;;12.07;;
7247;SDS011;3665;51.034;13.642;2023-05-20T16:33:14;14.73;;;13.20;;
7247;SDS011;3665;51.034;13.642;2023-05-20T16:38:01;16.80;;;14.40;;
7247;SDS011;3665;51.034;13.642;2023-05-20T16:42:45;16.10;;;14.60;;
7247;SDS011;3665;51.034;13.642;2023-05-20T16:47:29;15.23;;;13.73;;
7247;SDS011;3665;51.034;13.642;2023-05-20T16:52:17;16.13;;;14.40;;
7247;SDS011;3665;51.034;13.642;2023-05-20T16:57:12;15.47;;;13.97;;
7247;SDS011;3665;51.034;13.642;2023-05-20T17:01:58;16.43;;;14.77;;
7247;SDS011;3665;51.034;13.642;2023-05-20T17:06:42;15.80;;;14.20;;
7247;SDS011;3665;51.034;13.642;2023-05-20T17:11:30;18.00;;;16.20;;
7247;SDS011;3665;51.034;13.642;2023-05-20T17:16:25;16.90;;;14.77;;
7247;SDS011;3665;51.034;13.642;2023-05-20T17:21:08;16.10;;;14.60;;
7247;SDS011;3665;51.034;13.642;2023-05-20T17:26:01;16.83;;;14.70;;
7247;SDS011;3665;51.034;13.642;2023-05-20T17:30:46;17.93;;;16.23;;
7247;SDS011;3665;51.034;13.642;2023-05-20T17:35:32;15.63;;;14.10;;
7247;SDS011;3665;51.034;13.642;2023-05-20T17:40:18;15.10;;;12.93;;
7247;SDS011;3665;51.034;13.642;2023-05-20T17:45:15;14.87;;;13.37;;
7247;SDS011;3665;51.034;13.642;2023-05-20T17:50:01;15.23;;;12.77;;
7247;SDS011;3665;51.034;13.642;2023-05-20T17:54:48;14.20;;;12.77;;
7247;SDS011;3665;51.034;13.642;2023-05-20T17:59:31;16.43;;;13.83;;
7247;SDS011;3665;51.034;13.642;2023-05-20T18:04:26;13.77;;;11.37;;
7247;SDS011;3665;51.034;13.642;2023-05-20T18:09:13;12.40;;;11.20;;
7247;SDS011;3665;51.034;13.642;2023-05-20T18:13:59;13.33;;;11.13;;
7247;SDS011;3665;51.034;13.642;2023-05-20T18:18:48;13.03;;;11.73;;
7247;SDS011;3665;51.034;13.642;2023-05-20T18:23:35;12.50;;;11.30;;
7247;SDS011;3665;51.034;13.642;2023-05-20T18:28:23;14.00;;;12.50;;
7247;SDS011;3665;51.034;13.642;2023-05-20T18:33:16;13.27;;;11.93;;
7247;SDS011;3665;51.034;13.642;2023-05-20T18:38:00;13.77;;;12.30;;
7247;SDS011;3665;51.034;13.642;2023-05-20T18:42:44;13.27;;;11.90;;
7247;SDS011;3665;51.034;13.642;2023-05-20T18:47:35;13.00;;;11.70;;
7247;SDS011;3665;51.034;13.642;2023-05-20T18:52:25;13.43;;;12.03;;
7247;SDS011;3665;51.034;13.642;2023-05-20T18:57:12;12.80;;;11.57;;
7247;SDS011;3665;51.034;13.642;2023-05-20T19:02:00;14.53;;;12.97;;
7247;SDS011;3665;51.034;13.642;2023-05-20T19:06:44;13.70;;;12.27;;
7247;SDS011;3665;51.034;13.642;2023-05-20T19:11:30;13.43;;;11.67;;
7247;SDS011;3665;51.034;13.642;2023-05-20T19:16:18;13.23;;;11.93;;
7247;SDS011;3665;51.034;13.642;2023-05-20T19:21:17;12.87;;;11.57;;
7247;SDS011;3665;51.034;13.642;2023-05-20T19:26:00;14.43;;;12.93;;
7247;SDS011;3665;51.034;13.642;2023-05-20T19:35:54;13.87;;;12.47;;
7247;SDS011;3665;51.034;13.642;2023-05-20T19:40:38;14.20;;;12.90;;
7247;SDS011;3665;51.034;13.642;2023-05-20T19:45:22;14.33;;;12.80;;
7247;SDS011;3665;51.034;13.642;2023-05-20T19:50:10;14.37;;;12.97;;
7247;SDS011;3665;51.034;13.642;2023-05-20T19:55:09;14.63;;;12.60;;
7247;SDS011;3665;51.034;13.642;2023-05-20T19:59:52;16.10;;;14.50;;
7247;SDS011;3665;51.034;13.642;2023-05-20T20:04:36;15.23;;;13.30;;
7247;SDS011;3665;51.034;13.642;2023-05-20T20:09:28;17.20;;;14.10;;
7247;SDS011;3665;51.034;13.642;2023-05-20T20:14:14;16.03;;;14.43;;
7247;SDS011;3665;51.034;13.642;2023-05-20T20:19:02;15.63;;;13.60;;
7247;SDS011;3665;51.034;13.642;2023-05-20T20:23:49;21.87;;;14.50;;
7247;SDS011;3665;51.034;13.642;2023-05-20T20:28:38;15.80;;;14.30;;
7247;SDS011;3665;51.034;13.642;2023-05-20T20:33:27;16.10;;;14.60;;
7247;SDS011;3665;51.034;13.642;2023-05-20T20:38:15;17.47;;;15.67;;
7247;SDS011;3665;51.034;13.642;2023-05-20T20:43:04;19.10;;;17.20;;
7247;SDS011;3665;51.034;13.642;2023-05-20T20:47:53;16.90;;;15.07;;
7247;SDS011;3665;51.034;13.642;2023-05-20T20:52:42;16.47;;;14.77;;
7247;SDS011;3665;51.034;13.642;2023-05-20T20:57:28;17.57;;;15.67;;
7247;SDS011;3665;51.034;13.642;2023-05-20T21:02:18;16.30;;;14.70;;
7247;SDS011;3665;51.034;13.642;2023-05-20T21:12:08;19.03;;;16.10;;
7247;SDS011;3665;51.034;13.642;2023-05-20T21:17:01;17.63;;;15.87;;
7247;SDS011;3665;51.034;13.642;2023-05-20T21:21:45;18.27;;;16.43;;
7247;SDS011;3665;51.034;13.642;2023-05-20T21:26:33;19.50;;;17.27;;
7247;SDS011;3665;51.034;13.642;2023-05-20T21:31:17;19.37;;;17.27;;
7247;SDS011;3665;51.034;13.642;2023-05-20T21:36:07;19.10;;;17.20;;
7247;SDS011;3665;51.034;13.642;2023-05-20T21:40:55;18.70;;;16.70;;
7247;SDS011;3665;51.034;13.642;2023-05-20T21:45:46;23.23;;;17.70;;
7247;SDS011;3665;51.034;13.642;2023-05-20T21:50:31;19.63;;;16.53;;
7247;SDS011;3665;51.034;13.642;2023-05-20T21:55:15;19.57;;;17.57;;
7247;SDS011;3665;51.034;13.642;2023-05-20T22:00:07;20.73;;;18.53;;
7247;SDS011;3665;51.034;13.642;2023-05-20T22:04:56;20.53;;;18.27;;
7247;SDS011;3665;51.034;13.642;2023-05-20T22:09:47;20.53;;;18.30;;
7247;SDS011;3665;51.034;13.642;2023-05-20T22:14:32;22.80;;;19.03;;
7247;SDS011;3665;51.034;13.642;2023-05-20T22:19:22;20.67;;;18.50;;
7247;SDS011;3665;51.034;13.642;2023-05-20T22:24:09;21.53;;;18.97;;
7247;SDS011;3665;51.034;13.642;2023-05-20T22:28:53;20.97;;;18.10;;
7247;SDS011;3665;51.034;13.642;2023-05-20T22:33:38;21.03;;;18.73;;
7247;SDS011;3665;51.034;13.642;2023-05-20T22:38:29;23.27;;;20.37;;
7247;SDS011;3665;51.034;13.642;2023-05-20T22:48:26;25.50;;;19.17;;
7247;SDS011;3665;51.034;13.642;2023-05-20T22:53:14;22.93;;;20.43;;
7247;SDS011;3665;51.034;13.642;2023-05-20T22:58:01;23.20;;;20.33;;
7247;SDS011;3665;51.034;13.642;2023-05-20T23:02:48;24.97;;;20.90;;
7247;SDS011;3665;51.034;13.642;2023-05-20T23:07:36;23.10;;;20.27;;
7247;SDS011;3665;51.034;13.642;2023-05-20T23:12:22;25.30;;;20.60;;
7247;SDS011;3665;51.034;13.642;2023-05-20T23:17:09;24.80;;;22.17;;
7247;SDS011;3665;51.034;13.642;2023-05-20T23:21:57;22.53;;;19.87;;
7247;SDS011;3665;51.034;13.642;2023-05-20T23:26:49;24.93;;;20.77;;
7247;SDS011;3665;51.034;13.642;2023-05-20T23:31:37;25.37;;;19.97;;
7247;SDS011;3665;51.034;13.642;2023-05-20T23:36:27;25.97;;;23.17;;
7247;SDS011;3665;51.034;13.642;2023-05-20T23:41:12;26.27;;;21.63;;
7247;SDS011;3665;51.034;13.642;2023-05-20T23:45:58;24.47;;;21.17;;
7247;SDS011;3665;51.034;13.642;2023-05-20T23:50:44;24.03;;;20.93;;
7247;SDS011;3665;51.034;13.642;2023-05-20T23:55:37;27.57;;;22.47;;
